createdAt,value
2023-03-19T00:00:53.830Z,7.04
2023-03-19T00:03:58.055Z,7.14
2023-03-19T00:07:02.377Z,7.12
2023-03-19T00:10:07.012Z,7.30
2023-03-19T00:13:12.870Z,7.09
2023-03-19T00:16:16.999Z,6.90
2023-03-19T00:19:21.082Z,7.21
2023-03-19T00:22:25.015Z,7.25
2023-03-19T00:25:29.211Z,7.18
2023-03-19T00:28:35.732Z,6.79
2023-03-19T00:31:40.259Z,6.79
2023-03-19T00:34:44.859Z,6.74
2023-03-19T00:37:48.851Z,6.63
2023-03-19T00:40:52.899Z,6.62
2023-03-19T00:43:59.686Z,6.57
2023-03-19T00:47:07.664Z,6.37
2023-03-19T00:50:12.728Z,6.43
2023-03-19T00:53:16.772Z,6.48
2023-03-19T00:56:21.624Z,6.42
2023-03-19T00:59:27.428Z,6.77
2023-03-19T01:02:32.516Z,6.63
2023-03-19T01:08:40.962Z,6.78
2023-03-19T01:11:45.065Z,6.75
2023-03-19T01:14:50.456Z,6.62
2023-03-19T01:17:54.340Z,6.70
2023-03-19T01:20:58.510Z,6.60
2023-03-19T01:24:03.709Z,6.81
2023-03-19T01:27:07.803Z,6.73
2023-03-19T01:30:15.727Z,6.76
2023-03-19T01:33:55.056Z,6.66
2023-03-19T01:37:17.470Z,6.53
2023-03-19T01:40:22.156Z,6.68
2023-03-19T01:43:27.402Z,6.67
2023-03-19T01:46:53.132Z,6.54
2023-03-19T01:50:25.544Z,6.53
2023-03-19T01:53:46.866Z,6.37
2023-03-19T01:56:59.968Z,6.60
2023-03-19T02:00:27.980Z,6.69
2023-03-19T02:03:34.960Z,6.58
2023-03-19T02:06:55.370Z,6.68
2023-03-19T02:10:01.485Z,6.72
2023-03-19T02:13:06.950Z,6.69
2023-03-19T02:16:11.326Z,6.60
2023-03-19T02:19:24.188Z,6.56
2023-03-19T02:22:31.269Z,6.76
2023-03-19T02:25:44.996Z,6.92
2023-03-19T02:28:54.250Z,7.05
2023-03-19T02:32:05.189Z,6.92
2023-03-19T02:35:11.188Z,6.75
2023-03-19T02:38:16.671Z,6.97
2023-03-19T02:41:21.749Z,6.97
2023-03-19T02:44:27.415Z,7.10
2023-03-19T02:47:31.442Z,7.41
2023-03-19T02:50:35.777Z,7.21
2023-03-19T02:53:39.786Z,7.41
2023-03-19T02:56:43.812Z,7.46
2023-03-19T02:59:49.257Z,7.40
2023-03-19T03:02:53.321Z,7.39
2023-03-19T03:05:57.265Z,7.40
2023-03-19T03:09:01.403Z,7.44
2023-03-19T03:12:06.449Z,7.29
2023-03-19T03:15:12.219Z,7.38
2023-03-19T03:18:16.146Z,7.39
2023-03-19T03:21:21.756Z,7.43
2023-03-19T03:24:25.778Z,7.49
2023-03-19T03:27:29.912Z,7.22
2023-03-19T03:30:35.692Z,7.16
2023-03-19T03:33:39.783Z,7.20
2023-03-19T03:36:43.742Z,7.13
2023-03-19T03:39:48.648Z,7.01
2023-03-19T03:42:52.531Z,6.99
2023-03-19T03:45:58.689Z,7.18
2023-03-19T03:49:02.942Z,7.16
2023-03-19T03:52:08.821Z,7.19
2023-03-19T03:55:12.962Z,7.33
2023-03-19T03:58:17.171Z,7.28
2023-03-19T04:01:22.952Z,7.31
2023-03-19T04:04:31.745Z,7.31
2023-03-19T04:07:36.208Z,7.23
2023-03-19T04:10:42.620Z,7.20
2023-03-19T04:13:47.230Z,6.81
2023-03-19T04:16:52.869Z,7.21
2023-03-19T04:19:56.861Z,7.09
2023-03-19T04:23:00.788Z,7.20
2023-03-19T04:26:07.342Z,7.24
2023-03-19T04:29:12.065Z,7.14
2023-03-19T04:32:17.538Z,7.09
2023-03-19T04:35:21.908Z,7.21
2023-03-19T04:38:28.021Z,6.88
2023-03-19T04:41:32.234Z,7.05
2023-03-19T04:44:55.757Z,7.02
2023-03-19T04:48:02.100Z,7.05
2023-03-19T04:51:09.580Z,6.99
2023-03-19T04:54:15.125Z,7.02
2023-03-19T04:57:20.438Z,6.74
2023-03-19T05:00:28.520Z,6.88
2023-03-19T05:03:34.123Z,7.00
2023-03-19T05:06:38.533Z,6.85
2023-03-19T05:09:44.138Z,6.94
2023-03-19T05:12:48.412Z,6.96
2023-03-19T05:15:55.715Z,6.86
2023-03-19T05:19:01.755Z,7.00
2023-03-19T05:22:07.012Z,6.95
2023-03-19T05:25:11.829Z,7.07
2023-03-19T05:28:17.607Z,7.28
2023-03-19T05:31:22.136Z,7.27
2023-03-19T05:34:31.276Z,7.21
2023-03-19T05:37:35.529Z,7.20
2023-03-19T05:40:42.238Z,7.39
2023-03-19T05:43:58.945Z,7.67
2023-03-19T05:47:25.985Z,7.73
2023-03-19T05:50:34.740Z,7.78
2023-03-19T05:53:48.882Z,7.99
2023-03-19T05:57:11.070Z,8.11
2023-03-19T06:00:22.507Z,8.56
2023-03-19T06:03:27.495Z,8.73
2023-03-19T06:06:35.120Z,9.10
2023-03-19T06:09:39.478Z,9.00
2023-03-19T06:12:43.721Z,9.49
2023-03-19T06:16:10.376Z,9.55
2023-03-19T06:19:18.079Z,9.94
2023-03-19T06:22:23.725Z,10.30
2023-03-19T06:25:27.875Z,10.28
2023-03-19T06:28:32.040Z,10.78
2023-03-19T06:31:36.338Z,11.12
2023-03-19T06:34:48.396Z,11.31
2023-03-19T06:37:54.225Z,10.96
2023-03-19T06:40:58.320Z,10.59
2023-03-19T06:44:02.652Z,11.02
2023-03-19T06:47:07.466Z,11.11
2023-03-19T06:50:13.821Z,11.19
2023-03-19T06:53:19.502Z,11.46
2023-03-19T06:56:23.602Z,11.55
2023-03-19T06:59:27.934Z,11.76
2023-03-19T07:02:32.092Z,11.91
2023-03-19T07:05:36.316Z,12.23
2023-03-19T07:08:46.585Z,12.58
2023-03-19T07:11:50.730Z,12.84
2023-03-19T07:14:54.830Z,13.15
2023-03-19T07:17:58.976Z,13.51
2023-03-19T07:21:03.091Z,13.59
2023-03-19T07:24:09.031Z,13.76
2023-03-19T07:27:13.382Z,14.03
2023-03-19T07:30:17.860Z,13.88
2023-03-19T07:33:22.348Z,13.86
2023-03-19T07:36:26.621Z,13.87
2023-03-19T07:39:32.418Z,13.80
2023-03-19T07:42:36.931Z,13.87
2023-03-19T07:45:41.440Z,13.91
2023-03-19T07:48:45.456Z,13.86
2023-03-19T07:51:49.577Z,14.16
2023-03-19T07:54:55.272Z,14.39
2023-03-19T07:57:59.464Z,14.89
2023-03-19T08:01:03.796Z,14.85
2023-03-19T08:04:08.504Z,15.54
2023-03-19T08:07:13.223Z,16.03
2023-03-19T08:10:19.019Z,16.20
2023-03-19T08:13:23.113Z,15.06
2023-03-19T08:16:27.641Z,15.25
2023-03-19T08:19:32.261Z,16.02
2023-03-19T08:22:37.496Z,16.23
2023-03-19T08:25:43.630Z,16.57
2023-03-19T08:28:47.728Z,16.77
2023-03-19T08:31:51.812Z,16.40
2023-03-19T08:34:56.131Z,16.74
2023-03-19T08:38:00.265Z,17.12
2023-03-19T08:41:06.643Z,17.23
2023-03-19T08:44:10.752Z,17.57
2023-03-19T08:47:15.023Z,17.65
2023-03-19T08:50:20.332Z,18.12
2023-03-19T08:53:25.153Z,17.75
2023-03-19T08:56:30.626Z,17.96
2023-03-19T08:59:34.756Z,18.03
2023-03-19T09:02:39.113Z,17.78
2023-03-19T09:05:43.236Z,18.04
2023-03-19T09:08:47.347Z,18.31
2023-03-19T09:11:53.042Z,18.38
2023-03-19T09:14:57.137Z,18.49
2023-03-19T09:18:01.434Z,18.33
2023-03-19T09:21:06.393Z,18.38
2023-03-19T09:24:10.963Z,18.90
2023-03-19T09:27:16.406Z,19.00
2023-03-19T09:30:20.661Z,18.97
2023-03-19T09:33:24.830Z,18.75
2023-03-19T09:36:29.131Z,19.10
2023-03-19T09:39:33.767Z,19.35
2023-03-19T09:42:57.705Z,18.42
2023-03-19T09:46:05.861Z,19.59
2023-03-19T09:49:22.333Z,19.56
2023-03-19T09:52:43.358Z,18.80
2023-03-19T09:55:51.883Z,19.45
2023-03-19T09:58:57.465Z,19.88
2023-03-19T10:02:26.456Z,19.72
2023-03-19T10:05:43.979Z,19.45
2023-03-19T10:09:00.000Z,19.77
2023-03-19T10:12:19.467Z,19.65
2023-03-19T10:15:30.091Z,19.69
2023-03-19T10:18:39.618Z,18.10
2023-03-19T10:21:48.868Z,18.53
2023-03-19T10:24:55.972Z,18.27
2023-03-19T10:28:03.600Z,18.80
2023-03-19T10:31:26.373Z,19.59
2023-03-19T10:34:35.920Z,18.71
2023-03-19T10:37:40.352Z,19.49
2023-03-19T10:40:50.947Z,18.44
2023-03-19T10:43:59.669Z,18.63
2023-03-19T10:47:14.231Z,19.57
2023-03-19T10:50:20.740Z,19.34
2023-03-19T10:53:34.568Z,19.69
2023-03-19T10:56:47.191Z,19.62
2023-03-19T10:59:51.321Z,19.56
2023-03-19T11:02:59.526Z,20.10
2023-03-19T11:06:09.329Z,19.83
2023-03-19T11:09:24.949Z,20.27
2023-03-19T11:12:35.508Z,19.72
2023-03-19T11:15:40.667Z,20.16
2023-03-19T11:18:50.326Z,19.99
2023-03-19T11:22:04.435Z,19.97
2023-03-19T11:25:19.308Z,20.41
2023-03-19T11:28:26.958Z,20.35
2023-03-19T11:31:39.224Z,20.92
2023-03-19T11:34:52.631Z,20.51
2023-03-19T11:38:01.068Z,20.30
2023-03-19T11:41:14.806Z,20.69
2023-03-19T11:44:24.794Z,20.55
2023-03-19T11:47:38.083Z,20.05
2023-03-19T11:50:51.643Z,20.27
2023-03-19T11:54:06.630Z,19.97
2023-03-19T11:57:14.360Z,20.06
2023-03-19T12:00:30.050Z,20.47
2023-03-19T12:03:59.374Z,20.03
2023-03-19T12:07:16.028Z,20.00
2023-03-19T12:10:43.945Z,20.52
2023-03-19T12:14:03.191Z,20.92
2023-03-19T12:17:24.950Z,21.13
2023-03-19T12:20:46.873Z,21.14
2023-03-19T12:24:05.802Z,20.60
2023-03-19T12:27:23.807Z,20.51
2023-03-19T12:30:36.014Z,19.92
2023-03-19T12:33:48.237Z,20.50
2023-03-19T12:36:59.278Z,20.81
2023-03-19T12:40:24.270Z,20.55
2023-03-19T12:43:33.989Z,20.87
2023-03-19T12:46:43.748Z,20.87
2023-03-19T12:49:53.736Z,20.66
2023-03-19T12:53:02.245Z,20.93
2023-03-19T12:56:14.924Z,20.50
2023-03-19T12:59:34.608Z,21.04
2023-03-19T13:02:44.505Z,20.82
2023-03-19T13:05:54.904Z,21.06
2023-03-19T13:09:06.674Z,21.09
2023-03-19T13:12:19.194Z,21.40
2023-03-19T13:15:30.778Z,21.47
2023-03-19T13:18:42.769Z,21.00
2023-03-19T13:21:50.734Z,21.03
2023-03-19T13:24:57.134Z,21.19
2023-03-19T13:28:02.736Z,20.51
2023-03-19T13:31:09.321Z,20.14
2023-03-19T13:34:23.251Z,20.61
2023-03-19T13:37:28.394Z,20.74
2023-03-19T13:40:44.573Z,20.76
2023-03-19T13:43:56.980Z,20.87
2023-03-19T13:47:03.841Z,20.66
2023-03-19T13:50:28.711Z,20.86
2023-03-19T13:53:39.898Z,20.34
2023-03-19T13:57:08.901Z,20.34
2023-03-19T14:00:45.853Z,19.97
2023-03-19T14:03:58.806Z,20.17
2023-03-19T14:07:14.479Z,19.90
2023-03-19T14:10:25.675Z,20.06
2023-03-19T14:13:34.957Z,19.92
2023-03-19T14:16:44.012Z,20.01
2023-03-19T14:19:51.560Z,20.28
2023-03-19T14:23:04.936Z,20.50
2023-03-19T14:26:14.809Z,20.32
2023-03-19T14:29:20.167Z,20.47
2023-03-19T14:32:36.068Z,20.02
2023-03-19T14:35:47.376Z,19.92
2023-03-19T14:38:54.734Z,19.76
2023-03-19T14:42:07.552Z,19.89
2023-03-19T14:45:41.130Z,20.05
2023-03-19T14:49:11.770Z,19.89
2023-03-19T14:52:22.367Z,19.35
2023-03-19T14:55:36.110Z,19.47
2023-03-19T14:58:50.282Z,19.67
2023-03-19T15:01:55.577Z,19.66
2023-03-19T15:05:01.306Z,19.67
2023-03-19T15:08:13.490Z,19.59
2023-03-19T15:11:55.278Z,19.72
2023-03-19T15:15:21.647Z,19.75
2023-03-19T15:18:27.910Z,19.79
2023-03-19T15:21:32.541Z,19.85
2023-03-19T15:24:38.221Z,19.56
2023-03-19T15:27:43.137Z,19.51
2023-03-19T15:31:03.579Z,19.49
2023-03-19T15:34:23.841Z,19.31
2023-03-19T15:37:32.409Z,19.40
2023-03-19T15:40:39.835Z,19.19
2023-03-19T15:43:45.050Z,18.88
2023-03-19T15:46:50.742Z,18.65
2023-03-19T15:49:59.384Z,18.48
2023-03-19T15:53:09.142Z,18.40
2023-03-19T15:56:17.217Z,18.36
2023-03-19T15:59:24.894Z,18.23
2023-03-19T16:02:32.089Z,18.18
2023-03-19T16:05:36.874Z,18.20
2023-03-19T16:08:49.252Z,18.10
2023-03-19T16:11:56.212Z,17.96
2023-03-19T16:15:00.428Z,17.89
2023-03-19T16:18:26.927Z,17.83
2023-03-19T16:21:36.688Z,17.79
2023-03-19T16:24:43.292Z,17.63
2023-03-19T16:27:49.597Z,17.58
2023-03-19T16:30:53.875Z,17.45
2023-03-19T16:33:58.380Z,17.42
2023-03-19T16:37:03.660Z,17.40
2023-03-19T16:40:47.477Z,17.22
2023-03-19T16:43:55.164Z,17.26
2023-03-19T16:46:59.219Z,17.15
2023-03-19T16:50:03.416Z,17.10
2023-03-19T16:53:16.145Z,16.99
2023-03-19T16:56:20.995Z,17.04
2023-03-19T16:59:31.388Z,17.02
2023-03-19T17:02:35.550Z,17.04
2023-03-19T17:05:39.605Z,16.93
2023-03-19T17:08:44.484Z,16.80
2023-03-19T17:11:48.716Z,16.82
2023-03-19T17:14:54.504Z,16.73
2023-03-19T17:17:59.263Z,16.62
2023-03-19T17:21:07.603Z,16.52
2023-03-19T17:24:24.933Z,16.31
2023-03-19T17:27:29.352Z,16.33
2023-03-19T17:30:35.476Z,16.28
2023-03-19T17:33:39.883Z,16.13
2023-03-19T17:36:53.548Z,16.13
2023-03-19T17:39:57.694Z,16.11
2023-03-19T17:43:01.987Z,15.88
2023-03-19T17:46:07.955Z,15.80
2023-03-19T17:49:20.664Z,15.81
2023-03-19T17:52:24.954Z,15.78
2023-03-19T17:55:30.907Z,15.64
2023-03-19T17:58:35.633Z,15.50
2023-03-19T18:01:43.336Z,15.50
2023-03-19T18:04:47.495Z,15.50
2023-03-19T18:07:54.891Z,15.43
2023-03-19T18:10:59.270Z,15.40
2023-03-19T18:14:03.347Z,15.42
2023-03-19T18:17:09.678Z,15.44
2023-03-19T18:20:16.012Z,15.36
2023-03-19T18:23:20.504Z,15.34
2023-03-19T18:26:24.859Z,15.29
2023-03-19T18:29:28.930Z,15.13
2023-03-19T18:32:34.914Z,15.28
2023-03-19T18:35:41.882Z,15.09
2023-03-19T18:38:46.130Z,15.01
2023-03-19T18:41:50.297Z,14.99
2023-03-19T18:44:54.403Z,14.90
2023-03-19T18:48:00.771Z,14.83
2023-03-19T18:51:05.362Z,14.65
2023-03-19T18:54:11.579Z,14.66
2023-03-19T18:57:16.351Z,14.56
2023-03-19T19:00:22.841Z,14.50
2023-03-19T19:03:29.910Z,14.54
2023-03-19T19:06:46.906Z,14.39
2023-03-19T19:09:52.119Z,14.34
2023-03-19T19:12:57.227Z,14.45
2023-03-19T19:16:01.999Z,14.48
2023-03-19T19:19:16.788Z,14.54
2023-03-19T19:22:21.525Z,14.49
2023-03-19T19:25:27.553Z,14.38
2023-03-19T19:28:34.242Z,14.35
2023-03-19T19:31:38.501Z,13.94
2023-03-19T19:34:44.173Z,14.04
2023-03-19T19:37:48.284Z,13.69
2023-03-19T19:40:55.441Z,13.62
2023-03-19T19:44:03.487Z,13.36
2023-03-19T19:47:15.437Z,13.39
2023-03-19T19:50:22.518Z,13.54
2023-03-19T19:53:29.122Z,13.40
2023-03-19T19:56:33.278Z,13.29
2023-03-19T19:59:39.575Z,13.37
2023-03-19T20:02:43.670Z,13.18
2023-03-19T20:05:49.573Z,13.17
2023-03-19T20:08:53.602Z,12.89
2023-03-19T20:11:57.822Z,12.82
2023-03-19T20:15:02.074Z,12.71
2023-03-19T20:18:07.102Z,12.78
2023-03-19T20:21:13.004Z,12.93
2023-03-19T20:24:17.246Z,12.88
2023-03-19T20:27:24.668Z,12.85
2023-03-19T20:30:31.089Z,12.71
2023-03-19T20:33:35.456Z,12.92
2023-03-19T20:36:41.128Z,12.86
2023-03-19T20:39:45.764Z,12.74
2023-03-19T20:42:52.255Z,12.72
2023-03-19T20:45:56.982Z,12.76
2023-03-19T20:49:02.348Z,12.60
2023-03-19T20:52:07.897Z,12.40
2023-03-19T20:55:17.315Z,12.90
2023-03-19T20:58:27.870Z,13.06
2023-03-19T21:01:32.624Z,13.20
2023-03-19T21:04:36.818Z,13.13
2023-03-19T21:07:42.849Z,13.15
2023-03-19T21:10:48.674Z,13.31
2023-03-19T21:13:54.369Z,13.25
2023-03-19T21:16:59.264Z,13.33
2023-03-19T21:20:03.611Z,13.03
2023-03-19T21:23:17.548Z,12.95
2023-03-19T21:26:22.854Z,12.70
2023-03-19T21:29:33.600Z,12.68
2023-03-19T21:32:37.707Z,12.85
2023-03-19T21:35:41.851Z,12.67
2023-03-19T21:38:47.924Z,12.70
2023-03-19T21:41:52.275Z,12.82
2023-03-19T21:45:01.223Z,12.96
2023-03-19T21:48:25.168Z,12.80
2023-03-19T21:51:30.224Z,13.09
2023-03-19T21:54:35.839Z,12.96
2023-03-19T21:57:39.923Z,12.85
2023-03-19T22:00:44.749Z,12.80
2023-03-19T22:03:48.922Z,12.69
2023-03-19T22:06:53.295Z,12.44
2023-03-19T22:09:58.829Z,12.81
2023-03-19T22:13:03.154Z,12.70
2023-03-19T22:16:08.119Z,12.58
2023-03-19T22:19:15.657Z,12.55
2023-03-19T22:22:19.773Z,12.54
2023-03-19T22:25:30.359Z,12.48
2023-03-19T22:28:36.386Z,12.60
2023-03-19T22:31:40.553Z,12.40
2023-03-19T22:34:45.269Z,12.26
2023-03-19T22:37:49.676Z,12.46
2023-03-19T22:40:57.504Z,12.67
2023-03-19T22:44:03.799Z,12.70
2023-03-19T22:47:08.055Z,12.69
2023-03-19T22:50:19.036Z,12.78
2023-03-19T22:53:25.241Z,12.35
2023-03-19T22:56:30.765Z,12.14
2023-03-19T22:59:34.882Z,11.92
2023-03-19T23:02:39.020Z,11.48
2023-03-19T23:05:47.475Z,11.50
2023-03-19T23:08:51.608Z,11.45
2023-03-19T23:11:58.257Z,11.61
2023-03-19T23:15:02.336Z,11.54
2023-03-19T23:18:15.220Z,11.65
2023-03-19T23:21:20.470Z,11.67
2023-03-19T23:24:24.559Z,11.77
2023-03-19T23:27:29.908Z,11.78
2023-03-19T23:30:34.872Z,11.90
2023-03-19T23:33:38.915Z,11.99
2023-03-19T23:36:43.896Z,12.15
2023-03-19T23:39:48.006Z,12.06
2023-03-19T23:42:57.109Z,11.79
2023-03-19T23:46:01.405Z,11.59
2023-03-19T23:49:05.364Z,11.60
2023-03-19T23:52:15.016Z,11.28
2023-03-19T23:55:19.916Z,10.80
2023-03-19T23:58:30.951Z,10.86
